Terminal Aerodrome Forecast
Issued by NWS

Home | Current Version | Previous Version | Text Only | Print | Product List | Glossary Off
Versions: 1 2 3 4 5 6 7 8 9 10 11 12 13 14 15

000
FTUS43 KICT 180700 AAA
TAFCNU
TAF AMD
KCNU 180750Z 1808/1906 VRB03KT 4SM BR SKC
      TEMPO 1808/1812 2SM BR
     FM181400 15008KT P6SM SKC=

USA.gov is the U.S. government's official web portal to all federal, state and local government web resources and services.